sensor_id;sensor_type;location;lat;lon;timestamp;temperature;humidity
65406;DHT22;52016;51.228;-2.322;2022-12-16T00:00:32;-1.60;75.30
65406;DHT22;52016;51.228;-2.322;2022-12-16T00:04:14;-1.60;75.40
65406;DHT22;52016;51.228;-2.322;2022-12-16T00:07:58;-1.60;75.40
65406;DHT22;52016;51.228;-2.322;2022-12-16T00:11:40;-1.60;75.30
65406;DHT22;52016;51.228;-2.322;2022-12-16T00:15:22;-1.60;75.30
65406;DHT22;52016;51.228;-2.322;2022-12-16T00:19:04;-1.60;75.40
65406;DHT22;52016;51.228;-2.322;2022-12-16T00:22:46;-1.60;75.40
65406;DHT22;52016;51.228;-2.322;2022-12-16T00:26:27;-1.60;75.40
65406;DHT22;52016;51.228;-2.322;2022-12-16T00:30:12;-1.60;75.40
65406;DHT22;52016;51.228;-2.322;2022-12-16T00:33:57;-1.60;75.40
65406;DHT22;52016;51.228;-2.322;2022-12-16T00:37:39;-1.60;75.20
65406;DHT22;52016;51.228;-2.322;2022-12-16T00:41:21;-1.70;75.20
65406;DHT22;52016;51.228;-2.322;2022-12-16T00:45:03;-1.70;75.20
65406;DHT22;52016;51.228;-2.322;2022-12-16T00:48:45;-1.70;75.20
65406;DHT22;52016;51.228;-2.322;2022-12-16T00:52:27;-1.80;75.10
65406;DHT22;52016;51.228;-2.322;2022-12-16T00:56:11;-1.80;75.20
65406;DHT22;52016;51.228;-2.322;2022-12-16T00:59:55;-1.80;75.40
65406;DHT22;52016;51.228;-2.322;2022-12-16T01:03:37;-1.80;75.50
65406;DHT22;52016;51.228;-2.322;2022-12-16T01:07:20;-1.70;75.60
65406;DHT22;52016;51.228;-2.322;2022-12-16T01:11:02;-1.70;75.60
65406;DHT22;52016;51.228;-2.322;2022-12-16T01:14:44;-1.80;75.60
65406;DHT22;52016;51.228;-2.322;2022-12-16T01:18:26;-1.80;75.70
65406;DHT22;52016;51.228;-2.322;2022-12-16T01:22:08;-1.70;75.90
65406;DHT22;52016;51.228;-2.322;2022-12-16T01:25:52;-1.70;75.90
65406;DHT22;52016;51.228;-2.322;2022-12-16T01:29:36;-1.70;75.80
65406;DHT22;52016;51.228;-2.322;2022-12-16T01:33:18;-1.70;75.80
65406;DHT22;52016;51.228;-2.322;2022-12-16T01:37:00;-1.70;75.90
65406;DHT22;52016;51.228;-2.322;2022-12-16T01:40:42;-1.70;76.10
65406;DHT22;52016;51.228;-2.322;2022-12-16T01:44:25;-1.70;76.10
65406;DHT22;52016;51.228;-2.322;2022-12-16T01:48:21;-1.70;76.00
65406;DHT22;52016;51.228;-2.322;2022-12-16T01:52:05;-1.70;75.90
65406;DHT22;52016;51.228;-2.322;2022-12-16T01:55:50;-1.70;76.00
65406;DHT22;52016;51.228;-2.322;2022-12-16T01:59:34;-1.70;76.00
65406;DHT22;52016;51.228;-2.322;2022-12-16T02:03:19;-1.80;76.00
65406;DHT22;52016;51.228;-2.322;2022-12-16T02:07:01;-1.80;76.10
65406;DHT22;52016;51.228;-2.322;2022-12-16T02:22:59;-1.70;76.40
65406;DHT22;52016;51.228;-2.322;2022-12-16T02:30:44;-1.70;76.20
65406;DHT22;52016;51.228;-2.322;2022-12-16T02:34:36;-1.70;76.20
65406;DHT22;52016;51.228;-2.322;2022-12-16T02:38:22;-1.80;76.30
65406;DHT22;52016;51.228;-2.322;2022-12-16T02:45:51;-1.80;76.20
65406;DHT22;52016;51.228;-2.322;2022-12-16T02:49:44;-1.80;76.10
65406;DHT22;52016;51.228;-2.322;2022-12-16T02:53:26;-1.80;76.00
65406;DHT22;52016;51.228;-2.322;2022-12-16T03:09:12;-2.00;75.40
65406;DHT22;52016;51.228;-2.322;2022-12-16T03:12:55;-2.00;75.30
65406;DHT22;52016;51.228;-2.322;2022-12-16T03:16:39;-2.10;75.10
65406;DHT22;52016;51.228;-2.322;2022-12-16T03:20:42;-2.10;75.10
65406;DHT22;52016;51.228;-2.322;2022-12-16T03:24:27;-2.10;75.00
65406;DHT22;52016;51.228;-2.322;2022-12-16T03:32:21;-2.20;75.50
65406;DHT22;52016;51.228;-2.322;2022-12-16T03:36:15;-2.10;75.50
65406;DHT22;52016;51.228;-2.322;2022-12-16T03:40:01;-2.20;75.30
65406;DHT22;52016;51.228;-2.322;2022-12-16T03:43:44;-2.20;75.30
65406;DHT22;52016;51.228;-2.322;2022-12-16T03:47:28;-2.20;75.40
65406;DHT22;52016;51.228;-2.322;2022-12-16T03:51:10;-2.20;75.50
65406;DHT22;52016;51.228;-2.322;2022-12-16T03:55:09;-2.20;75.40
65406;DHT22;52016;51.228;-2.322;2022-12-16T03:58:51;-2.20;75.40
65406;DHT22;52016;51.228;-2.322;2022-12-16T04:02:33;-2.20;75.40
65406;DHT22;52016;51.228;-2.322;2022-12-16T04:06:16;-2.20;75.30
65406;DHT22;52016;51.228;-2.322;2022-12-16T04:09:59;-2.20;75.40
65406;DHT22;52016;51.228;-2.322;2022-12-16T04:13:41;-2.30;75.50
65406;DHT22;52016;51.228;-2.322;2022-12-16T04:17:42;-2.30;75.50
65406;DHT22;52016;51.228;-2.322;2022-12-16T04:21:42;-2.20;75.50
65406;DHT22;52016;51.228;-2.322;2022-12-16T04:25:43;-2.20;75.40
65406;DHT22;52016;51.228;-2.322;2022-12-16T04:29:42;-2.20;75.40
65406;DHT22;52016;51.228;-2.322;2022-12-16T04:33:43;-2.20;75.40
65406;DHT22;52016;51.228;-2.322;2022-12-16T04:37:43;-2.30;75.30
65406;DHT22;52016;51.228;-2.322;2022-12-16T04:41:45;-2.30;75.30
65406;DHT22;52016;51.228;-2.322;2022-12-16T04:46:04;-2.30;75.20
65406;DHT22;52016;51.228;-2.322;2022-12-16T04:50:04;-2.30;75.10
65406;DHT22;52016;51.228;-2.322;2022-12-16T04:54:05;-2.30;75.00
65406;DHT22;52016;51.228;-2.322;2022-12-16T04:58:05;-2.30;74.90
65406;DHT22;52016;51.228;-2.322;2022-12-16T05:02:24;-2.40;74.90
65406;DHT22;52016;51.228;-2.322;2022-12-16T05:06:24;-2.40;74.90
65406;DHT22;52016;51.228;-2.322;2022-12-16T05:10:25;-2.40;75.00
65406;DHT22;52016;51.228;-2.322;2022-12-16T05:14:25;-2.40;75.00
65406;DHT22;52016;51.228;-2.322;2022-12-16T05:18:26;-2.40;75.00
65406;DHT22;52016;51.228;-2.322;2022-12-16T05:22:27;-2.40;74.90
65406;DHT22;52016;51.228;-2.322;2022-12-16T05:26:27;-2.40;74.90
65406;DHT22;52016;51.228;-2.322;2022-12-16T05:30:28;-2.40;74.90
65406;DHT22;52016;51.228;-2.322;2022-12-16T05:34:46;-2.40;74.90
65406;DHT22;52016;51.228;-2.322;2022-12-16T05:38:47;-2.50;74.90
65406;DHT22;52016;51.228;-2.322;2022-12-16T05:42:47;-2.50;74.90
65406;DHT22;52016;51.228;-2.322;2022-12-16T05:46:53;-2.50;74.90
65406;DHT22;52016;51.228;-2.322;2022-12-16T05:50:54;-2.60;74.90
65406;DHT22;52016;51.228;-2.322;2022-12-16T05:54:55;-2.60;74.90
65406;DHT22;52016;51.228;-2.322;2022-12-16T05:58:55;-2.50;74.90
65406;DHT22;52016;51.228;-2.322;2022-12-16T06:02:56;-2.60;74.90
65406;DHT22;52016;51.228;-2.322;2022-12-16T06:06:56;-2.60;75.10
65406;DHT22;52016;51.228;-2.322;2022-12-16T06:10:57;-2.50;75.40
65406;DHT22;52016;51.228;-2.322;2022-12-16T06:14:58;-2.50;75.60
65406;DHT22;52016;51.228;-2.322;2022-12-16T06:18:58;-2.40;75.80
65406;DHT22;52016;51.228;-2.322;2022-12-16T06:22:58;-2.40;75.80
65406;DHT22;52016;51.228;-2.322;2022-12-16T06:27:05;-2.40;75.60
65406;DHT22;52016;51.228;-2.322;2022-12-16T06:31:08;-2.50;75.50
65406;DHT22;52016;51.228;-2.322;2022-12-16T06:35:08;-2.60;75.40
65406;DHT22;52016;51.228;-2.322;2022-12-16T06:39:09;-2.60;75.20
65406;DHT22;52016;51.228;-2.322;2022-12-16T06:43:09;-2.60;75.10
65406;DHT22;52016;51.228;-2.322;2022-12-16T06:47:10;-2.60;75.20
65406;DHT22;52016;51.228;-2.322;2022-12-16T06:51:10;-2.60;75.20
65406;DHT22;52016;51.228;-2.322;2022-12-16T06:55:11;-2.60;75.20
65406;DHT22;52016;51.228;-2.322;2022-12-16T06:59:11;-2.60;75.20
65406;DHT22;52016;51.228;-2.322;2022-12-16T07:03:12;-2.60;75.20
65406;DHT22;52016;51.228;-2.322;2022-12-16T07:07:16;-2.60;75.30
65406;DHT22;52016;51.228;-2.322;2022-12-16T07:11:17;-2.60;75.30
65406;DHT22;52016;51.228;-2.322;2022-12-16T07:15:18;-2.60;75.30
65406;DHT22;52016;51.228;-2.322;2022-12-16T07:19:18;-2.70;75.30
65406;DHT22;52016;51.228;-2.322;2022-12-16T07:23:18;-2.70;75.30
65406;DHT22;52016;51.228;-2.322;2022-12-16T07:27:19;-2.70;75.40
65406;DHT22;52016;51.228;-2.322;2022-12-16T07:31:20;-2.70;75.50
65406;DHT22;52016;51.228;-2.322;2022-12-16T07:35:20;-2.70;75.50
65406;DHT22;52016;51.228;-2.322;2022-12-16T07:39:21;-2.70;75.60
65406;DHT22;52016;51.228;-2.322;2022-12-16T07:43:22;-2.60;75.50
65406;DHT22;52016;51.228;-2.322;2022-12-16T07:47:23;-2.80;75.50
65406;DHT22;52016;51.228;-2.322;2022-12-16T07:51:24;-2.70;75.50
65406;DHT22;52016;51.228;-2.322;2022-12-16T07:55:24;-2.70;75.50
65406;DHT22;52016;51.228;-2.322;2022-12-16T07:59:25;-2.70;75.60
65406;DHT22;52016;51.228;-2.322;2022-12-16T08:03:26;-2.70;75.60
65406;DHT22;52016;51.228;-2.322;2022-12-16T08:07:27;-2.80;75.50
65406;DHT22;52016;51.228;-2.322;2022-12-16T08:11:27;-2.70;75.60
65406;DHT22;52016;51.228;-2.322;2022-12-16T08:15:28;-2.70;75.50
65406;DHT22;52016;51.228;-2.322;2022-12-16T08:19:28;-2.70;75.60
65406;DHT22;52016;51.228;-2.322;2022-12-16T08:23:29;-2.70;75.60
65406;DHT22;52016;51.228;-2.322;2022-12-16T08:27:29;-2.70;75.70
65406;DHT22;52016;51.228;-2.322;2022-12-16T08:31:30;-2.60;75.70
65406;DHT22;52016;51.228;-2.322;2022-12-16T08:35:30;-2.60;75.70
65406;DHT22;52016;51.228;-2.322;2022-12-16T08:39:31;-2.60;75.80
65406;DHT22;52016;51.228;-2.322;2022-12-16T08:43:52;-2.60;75.80
65406;DHT22;52016;51.228;-2.322;2022-12-16T08:47:52;-2.60;75.70
65406;DHT22;52016;51.228;-2.322;2022-12-16T08:51:52;-2.50;75.80
65406;DHT22;52016;51.228;-2.322;2022-12-16T08:55:53;-2.50;75.90
65406;DHT22;52016;51.228;-2.322;2022-12-16T08:59:58;-2.50;76.10
65406;DHT22;52016;51.228;-2.322;2022-12-16T09:03:59;-2.50;76.20
65406;DHT22;52016;51.228;-2.322;2022-12-16T09:08:00;-2.50;76.30
65406;DHT22;52016;51.228;-2.322;2022-12-16T09:12:01;-2.40;76.50
65406;DHT22;52016;51.228;-2.322;2022-12-16T09:16:02;-2.30;76.60
65406;DHT22;52016;51.228;-2.322;2022-12-16T09:20:03;-2.20;76.60
65406;DHT22;52016;51.228;-2.322;2022-12-16T09:29:06;-2.00;76.60
65406;DHT22;52016;51.228;-2.322;2022-12-16T09:33:06;-1.90;76.60
65406;DHT22;52016;51.228;-2.322;2022-12-16T09:37:07;-1.90;76.70
65406;DHT22;52016;51.228;-2.322;2022-12-16T09:41:35;-1.80;76.80
65406;DHT22;52016;51.228;-2.322;2022-12-16T09:49:51;-1.60;76.80
65406;DHT22;52016;51.228;-2.322;2022-12-16T09:53:56;-1.50;76.90
65406;DHT22;52016;51.228;-2.322;2022-12-16T09:57:59;-1.50;77.10
65406;DHT22;52016;51.228;-2.322;2022-12-16T10:02:00;-1.40;77.20
65406;DHT22;52016;51.228;-2.322;2022-12-16T10:15:26;-1.10;77.20
65406;DHT22;52016;51.228;-2.322;2022-12-16T10:24:14;-0.80;77.20
65406;DHT22;52016;51.228;-2.322;2022-12-16T10:28:35;-0.70;77.40
65406;DHT22;52016;51.228;-2.322;2022-12-16T10:32:49;-0.60;77.30
65406;DHT22;52016;51.228;-2.322;2022-12-16T10:36:50;-0.50;77.30
65406;DHT22;52016;51.228;-2.322;2022-12-16T10:40:55;-0.40;77.30
65406;DHT22;52016;51.228;-2.322;2022-12-16T10:45:00;-0.40;77.30
65406;DHT22;52016;51.228;-2.322;2022-12-16T10:49:01;-0.30;77.20
65406;DHT22;52016;51.228;-2.322;2022-12-16T11:01:26;0.00;77.60
65406;DHT22;52016;51.228;-2.322;2022-12-16T11:05:29;0.10;77.90
65406;DHT22;52016;51.228;-2.322;2022-12-16T11:09:34;0.30;78.20
65406;DHT22;52016;51.228;-2.322;2022-12-16T11:13:35;0.60;78.50
65406;DHT22;52016;51.228;-2.322;2022-12-16T11:17:36;0.90;78.90
65406;DHT22;52016;51.228;-2.322;2022-12-16T11:21:37;1.20;79.20
65406;DHT22;52016;51.228;-2.322;2022-12-16T11:25:37;1.60;79.60
65406;DHT22;52016;51.228;-2.322;2022-12-16T11:29:55;1.90;80.00
65406;DHT22;52016;51.228;-2.322;2022-12-16T11:33:57;2.10;79.40
65406;DHT22;52016;51.228;-2.322;2022-12-16T11:38:00;2.30;80.00
65406;DHT22;52016;51.228;-2.322;2022-12-16T11:42:04;2.60;80.00
65406;DHT22;52016;51.228;-2.322;2022-12-16T11:46:12;2.80;79.80
65406;DHT22;52016;51.228;-2.322;2022-12-16T11:50:17;3.10;79.80
65406;DHT22;52016;51.228;-2.322;2022-12-16T11:54:32;3.40;79.80
65406;DHT22;52016;51.228;-2.322;2022-12-16T11:58:40;3.70;79.60
65406;DHT22;52016;51.228;-2.322;2022-12-16T12:15:21;4.50;76.80
65406;DHT22;52016;51.228;-2.322;2022-12-16T12:42:00;5.30;76.60
65406;DHT22;52016;51.228;-2.322;2022-12-16T12:46:08;5.40;76.80
65406;DHT22;52016;51.228;-2.322;2022-12-16T12:50:20;5.50;75.90
65406;DHT22;52016;51.228;-2.322;2022-12-16T12:54:56;5.60;76.20
65406;DHT22;52016;51.228;-2.322;2022-12-16T12:59:07;5.80;75.00
65406;DHT22;52016;51.228;-2.322;2022-12-16T13:07:31;6.20;74.40
65406;DHT22;52016;51.228;-2.322;2022-12-16T13:11:32;6.40;75.90
65406;DHT22;52016;51.228;-2.322;2022-12-16T13:15:39;6.60;76.20
65406;DHT22;52016;51.228;-2.322;2022-12-16T13:19:41;6.80;75.90
65406;DHT22;52016;51.228;-2.322;2022-12-16T13:23:43;7.00;75.60
65406;DHT22;52016;51.228;-2.322;2022-12-16T13:27:54;6.90;74.70
65406;DHT22;52016;51.228;-2.322;2022-12-16T13:36:09;5.90;73.90
65406;DHT22;52016;51.228;-2.322;2022-12-16T13:48:43;5.80;73.40
65406;DHT22;52016;51.228;-2.322;2022-12-16T13:56:48;4.90;73.60
65406;DHT22;52016;51.228;-2.322;2022-12-16T14:01:13;4.40;73.50
65406;DHT22;52016;51.228;-2.322;2022-12-16T14:05:32;4.00;73.50
65406;DHT22;52016;51.228;-2.322;2022-12-16T14:09:37;3.70;74.10
65406;DHT22;52016;51.228;-2.322;2022-12-16T14:14:03;3.30;74.10
65406;DHT22;52016;51.228;-2.322;2022-12-16T14:18:24;3.10;74.50
65406;DHT22;52016;51.228;-2.322;2022-12-16T14:26:50;2.80;75.00
65406;DHT22;52016;51.228;-2.322;2022-12-16T14:31:04;2.70;75.10
65406;DHT22;52016;51.228;-2.322;2022-12-16T14:35:26;2.60;75.40
65406;DHT22;52016;51.228;-2.322;2022-12-16T14:39:29;2.50;75.60
65406;DHT22;52016;51.228;-2.322;2022-12-16T14:43:30;2.40;75.60
65406;DHT22;52016;51.228;-2.322;2022-12-16T14:47:31;2.30;75.80
65406;DHT22;52016;51.228;-2.322;2022-12-16T14:55:34;2.20;76.20
65406;DHT22;52016;51.228;-2.322;2022-12-16T14:59:34;2.10;76.30
65406;DHT22;52016;51.228;-2.322;2022-12-16T15:03:40;2.00;76.20
65406;DHT22;52016;51.228;-2.322;2022-12-16T15:07:42;2.00;76.10
65406;DHT22;52016;51.228;-2.322;2022-12-16T15:11:43;1.90;76.10
65406;DHT22;52016;51.228;-2.322;2022-12-16T15:15:46;1.80;76.20
65406;DHT22;52016;51.228;-2.322;2022-12-16T15:19:52;1.80;76.10
65406;DHT22;52016;51.228;-2.322;2022-12-16T15:23:53;1.80;76.20
65406;DHT22;52016;51.228;-2.322;2022-12-16T15:27:55;1.70;76.30
65406;DHT22;52016;51.228;-2.322;2022-12-16T15:31:55;1.60;76.30
65406;DHT22;52016;51.228;-2.322;2022-12-16T15:36:01;1.50;76.30
65406;DHT22;52016;51.228;-2.322;2022-12-16T15:40:02;1.50;76.40
65406;DHT22;52016;51.228;-2.322;2022-12-16T15:44:03;1.40;76.50
65406;DHT22;52016;51.228;-2.322;2022-12-16T15:48:28;1.30;76.80
65406;DHT22;52016;51.228;-2.322;2022-12-16T15:56:51;1.30;76.70
65406;DHT22;52016;51.228;-2.322;2022-12-16T16:00:57;1.30;77.40
65406;DHT22;52016;51.228;-2.322;2022-12-16T16:04:58;1.20;76.60
65406;DHT22;52016;51.228;-2.322;2022-12-16T16:08:58;1.10;76.90
65406;DHT22;52016;51.228;-2.322;2022-12-16T16:12:59;1.10;76.80
65406;DHT22;52016;51.228;-2.322;2022-12-16T16:17:00;1.00;76.80
65406;DHT22;52016;51.228;-2.322;2022-12-16T16:21:01;0.90;76.90
65406;DHT22;52016;51.228;-2.322;2022-12-16T16:25:02;0.90;77.10
65406;DHT22;52016;51.228;-2.322;2022-12-16T16:29:04;0.90;77.10
65406;DHT22;52016;51.228;-2.322;2022-12-16T16:33:05;0.80;76.80
65406;DHT22;52016;51.228;-2.322;2022-12-16T16:37:13;0.80;76.80
65406;DHT22;52016;51.228;-2.322;2022-12-16T16:41:15;0.80;76.70
65406;DHT22;52016;51.228;-2.322;2022-12-16T16:45:15;0.70;76.80
65406;DHT22;52016;51.228;-2.322;2022-12-16T16:49:27;0.70;76.90
65406;DHT22;52016;51.228;-2.322;2022-12-16T16:53:28;0.60;76.80
65406;DHT22;52016;51.228;-2.322;2022-12-16T16:57:33;0.60;77.00
65406;DHT22;52016;51.228;-2.322;2022-12-16T17:01:37;0.50;77.00
65406;DHT22;52016;51.228;-2.322;2022-12-16T17:05:38;0.50;77.10
65406;DHT22;52016;51.228;-2.322;2022-12-16T17:09:38;0.50;77.30
65406;DHT22;52016;51.228;-2.322;2022-12-16T17:13:39;0.40;77.30
65406;DHT22;52016;51.228;-2.322;2022-12-16T17:17:40;0.40;77.40
65406;DHT22;52016;51.228;-2.322;2022-12-16T17:21:41;0.40;77.40
65406;DHT22;52016;51.228;-2.322;2022-12-16T17:25:41;0.30;77.40
65406;DHT22;52016;51.228;-2.322;2022-12-16T17:29:42;0.30;77.40
65406;DHT22;52016;51.228;-2.322;2022-12-16T17:33:43;0.30;77.50
65406;DHT22;52016;51.228;-2.322;2022-12-16T17:37:44;0.30;77.60
65406;DHT22;52016;51.228;-2.322;2022-12-16T17:41:45;0.30;77.60
65406;DHT22;52016;51.228;-2.322;2022-12-16T17:46:00;0.30;77.80
65406;DHT22;52016;51.228;-2.322;2022-12-16T17:50:02;0.20;77.90
65406;DHT22;52016;51.228;-2.322;2022-12-16T17:54:03;0.10;78.00
65406;DHT22;52016;51.228;-2.322;2022-12-16T17:58:10;0.10;78.20
65406;DHT22;52016;51.228;-2.322;2022-12-16T18:02:12;0.00;78.30
65406;DHT22;52016;51.228;-2.322;2022-12-16T18:06:13;0.00;78.20
65406;DHT22;52016;51.228;-2.322;2022-12-16T18:10:13;0.00;78.30
65406;DHT22;52016;51.228;-2.322;2022-12-16T18:14:14;0.00;78.30
65406;DHT22;52016;51.228;-2.322;2022-12-16T18:18:15;-0.10;78.40
65406;DHT22;52016;51.228;-2.322;2022-12-16T18:22:15;-0.10;78.10
65406;DHT22;52016;51.228;-2.322;2022-12-16T18:26:16;-0.20;78.20
65406;DHT22;52016;51.228;-2.322;2022-12-16T18:30:17;-0.20;78.30
65406;DHT22;52016;51.228;-2.322;2022-12-16T18:34:17;-0.20;78.10
65406;DHT22;52016;51.228;-2.322;2022-12-16T18:38:17;-0.20;78.20
65406;DHT22;52016;51.228;-2.322;2022-12-16T18:42:18;-0.30;78.50
65406;DHT22;52016;51.228;-2.322;2022-12-16T18:46:19;-0.30;78.70
65406;DHT22;52016;51.228;-2.322;2022-12-16T18:50:19;-0.30;78.20
65406;DHT22;52016;51.228;-2.322;2022-12-16T18:54:20;-0.30;78.10
65406;DHT22;52016;51.228;-2.322;2022-12-16T18:58:20;-0.30;78.00
65406;DHT22;52016;51.228;-2.322;2022-12-16T19:02:36;-0.30;78.30
65406;DHT22;52016;51.228;-2.322;2022-12-16T19:06:37;-0.30;78.10
65406;DHT22;52016;51.228;-2.322;2022-12-16T19:10:37;-0.20;78.20
65406;DHT22;52016;51.228;-2.322;2022-12-16T19:14:38;-0.20;78.50
65406;DHT22;52016;51.228;-2.322;2022-12-16T19:18:38;-0.20;78.50
65406;DHT22;52016;51.228;-2.322;2022-12-16T19:22:39;-0.20;78.50
65406;DHT22;52016;51.228;-2.322;2022-12-16T19:26:39;-0.10;78.40
65406;DHT22;52016;51.228;-2.322;2022-12-16T19:30:40;-0.20;78.20
65406;DHT22;52016;51.228;-2.322;2022-12-16T19:34:41;-0.10;78.40
65406;DHT22;52016;51.228;-2.322;2022-12-16T19:38:41;-0.10;78.50
65406;DHT22;52016;51.228;-2.322;2022-12-16T19:42:42;-0.10;78.50
65406;DHT22;52016;51.228;-2.322;2022-12-16T19:46:43;-0.10;78.60
65406;DHT22;52016;51.228;-2.322;2022-12-16T19:50:44;-0.10;78.60
65406;DHT22;52016;51.228;-2.322;2022-12-16T19:54:44;-0.20;78.50
65406;DHT22;52016;51.228;-2.322;2022-12-16T19:58:45;-0.10;78.50
65406;DHT22;52016;51.228;-2.322;2022-12-16T20:02:45;-0.20;78.50
65406;DHT22;52016;51.228;-2.322;2022-12-16T20:06:46;-0.20;78.50
65406;DHT22;52016;51.228;-2.322;2022-12-16T20:10:47;-0.20;78.50
65406;DHT22;52016;51.228;-2.322;2022-12-16T20:14:47;-0.30;78.70
65406;DHT22;52016;51.228;-2.322;2022-12-16T20:18:48;-0.30;78.60
65406;DHT22;52016;51.228;-2.322;2022-12-16T20:22:50;-0.40;78.60
65406;DHT22;52016;51.228;-2.322;2022-12-16T20:26:51;-0.40;78.50
65406;DHT22;52016;51.228;-2.322;2022-12-16T20:30:52;-0.40;78.50
65406;DHT22;52016;51.228;-2.322;2022-12-16T20:34:52;-0.50;78.60
65406;DHT22;52016;51.228;-2.322;2022-12-16T20:38:53;-0.50;78.50
65406;DHT22;52016;51.228;-2.322;2022-12-16T20:42:54;-0.60;78.40
65406;DHT22;52016;51.228;-2.322;2022-12-16T20:46:55;-0.60;78.40
65406;DHT22;52016;51.228;-2.322;2022-12-16T20:50:57;-0.70;78.40
65406;DHT22;52016;51.228;-2.322;2022-12-16T20:55:07;-0.80;78.30
65406;DHT22;52016;51.228;-2.322;2022-12-16T20:59:08;-0.90;78.40
65406;DHT22;52016;51.228;-2.322;2022-12-16T21:03:08;-0.90;78.30
65406;DHT22;52016;51.228;-2.322;2022-12-16T21:07:09;-0.90;78.30
65406;DHT22;52016;51.228;-2.322;2022-12-16T21:11:10;-0.90;78.20
65406;DHT22;52016;51.228;-2.322;2022-12-16T21:15:11;-0.90;78.20
65406;DHT22;52016;51.228;-2.322;2022-12-16T21:19:12;-0.90;78.40
65406;DHT22;52016;51.228;-2.322;2022-12-16T21:23:14;-0.90;78.20
65406;DHT22;52016;51.228;-2.322;2022-12-16T21:27:15;-0.90;78.10
65406;DHT22;52016;51.228;-2.322;2022-12-16T21:31:15;-0.90;78.00
65406;DHT22;52016;51.228;-2.322;2022-12-16T21:35:17;-0.90;78.00
65406;DHT22;52016;51.228;-2.322;2022-12-16T21:39:17;-1.00;78.10
65406;DHT22;52016;51.228;-2.322;2022-12-16T21:43:18;-1.00;78.10
65406;DHT22;52016;51.228;-2.322;2022-12-16T21:47:19;-1.00;78.10
65406;DHT22;52016;51.228;-2.322;2022-12-16T21:51:20;-1.00;78.10
65406;DHT22;52016;51.228;-2.322;2022-12-16T21:55:20;-1.00;78.10
65406;DHT22;52016;51.228;-2.322;2022-12-16T21:59:21;-0.90;78.20
65406;DHT22;52016;51.228;-2.322;2022-12-16T22:03:21;-0.90;78.30
65406;DHT22;52016;51.228;-2.322;2022-12-16T22:07:22;-0.80;78.30
65406;DHT22;52016;51.228;-2.322;2022-12-16T22:11:23;-0.70;78.30
65406;DHT22;52016;51.228;-2.322;2022-12-16T22:15:23;-0.70;78.30
65406;DHT22;52016;51.228;-2.322;2022-12-16T22:19:23;-0.70;78.10
65406;DHT22;52016;51.228;-2.322;2022-12-16T22:23:28;-0.70;78.20
65406;DHT22;52016;51.228;-2.322;2022-12-16T22:27:45;-0.60;78.20
65406;DHT22;52016;51.228;-2.322;2022-12-16T22:31:45;-0.60;78.30
65406;DHT22;52016;51.228;-2.322;2022-12-16T22:35:46;-0.60;78.30
65406;DHT22;52016;51.228;-2.322;2022-12-16T22:39:46;-0.60;78.20
65406;DHT22;52016;51.228;-2.322;2022-12-16T22:43:47;-0.60;78.20
65406;DHT22;52016;51.228;-2.322;2022-12-16T22:47:48;-0.60;78.20
65406;DHT22;52016;51.228;-2.322;2022-12-16T22:51:50;-0.60;78.20
65406;DHT22;52016;51.228;-2.322;2022-12-16T22:55:51;-0.60;78.20
65406;DHT22;52016;51.228;-2.322;2022-12-16T22:59:51;-0.60;78.20
65406;DHT22;52016;51.228;-2.322;2022-12-16T23:03:52;-0.60;78.20
65406;DHT22;52016;51.228;-2.322;2022-12-16T23:07:52;-0.50;78.10
65406;DHT22;52016;51.228;-2.322;2022-12-16T23:11:53;-0.60;78.00
65406;DHT22;52016;51.228;-2.322;2022-12-16T23:15:54;-0.50;78.00
65406;DHT22;52016;51.228;-2.322;2022-12-16T23:19:55;-0.50;77.90
65406;DHT22;52016;51.228;-2.322;2022-12-16T23:23:56;-0.50;78.00
65406;DHT22;52016;51.228;-2.322;2022-12-16T23:27:56;-0.50;78.10
65406;DHT22;52016;51.228;-2.322;2022-12-16T23:31:57;-0.40;78.10
65406;DHT22;52016;51.228;-2.322;2022-12-16T23:35:57;-0.40;78.10
65406;DHT22;52016;51.228;-2.322;2022-12-16T23:39:58;-0.40;78.10
65406;DHT22;52016;51.228;-2.322;2022-12-16T23:43:59;-0.30;78.10
65406;DHT22;52016;51.228;-2.322;2022-12-16T23:48:06;-0.30;78.00
65406;DHT22;52016;51.228;-2.322;2022-12-16T23:52:06;-0.30;78.00
65406;DHT22;52016;51.228;-2.322;2022-12-16T23:56:07;-0.30;78.00
